sensor_id;sensor_type;location;lat;lon;timestamp;pressure;altitude;pressure_sealevel;temperature;humidity
29331;BME280;16331;52.528;13.342;2023-04-26T00:01:07;157424.91;;;6.21;100.00
29331;BME280;16331;52.528;13.342;2023-04-26T00:03:33;157426.28;;;6.22;100.00
29331;BME280;16331;52.528;13.342;2023-04-26T00:05:59;157392.16;;;6.09;100.00
29331;BME280;16331;52.528;13.342;2023-04-26T00:08:33;157385.34;;;6.07;100.00
29331;BME280;16331;52.528;13.342;2023-04-26T00:10:59;157392.16;;;6.09;100.00
29331;BME280;16331;52.528;13.342;2023-04-26T00:13:26;157363.47;;;5.99;100.00
29331;BME280;16331;52.528;13.342;2023-04-26T00:15:52;157393.53;;;6.10;100.00
29331;BME280;16331;52.528;13.342;2023-04-26T00:18:18;157385.34;;;6.07;100.00
29331;BME280;16331;52.528;13.342;2023-04-26T00:20:45;157377.09;;;6.04;100.00
29331;BME280;16331;52.528;13.342;2023-04-26T00:23:12;157336.16;;;5.88;100.00
29331;BME280;16331;52.528;13.342;2023-04-26T00:25:38;157334.75;;;5.88;100.00
29331;BME280;16331;52.528;13.342;2023-04-26T00:28:04;157301.94;;;5.76;100.00
29331;BME280;16331;52.528;13.342;2023-04-26T00:30:31;157314.25;;;5.80;100.00
29331;BME280;16331;52.528;13.342;2023-04-26T00:32:59;157295.09;;;5.73;100.00
29331;BME280;16331;52.528;13.342;2023-04-26T00:35:25;157311.47;;;5.79;100.00
29331;BME280;16331;52.528;13.342;2023-04-26T00:37:51;157297.84;;;5.74;100.00
29331;BME280;16331;52.528;13.342;2023-04-26T00:40:17;157296.47;;;5.74;100.00
29331;BME280;16331;52.528;13.342;2023-04-26T00:42:45;157278.72;;;5.67;100.00
29331;BME280;16331;52.528;13.342;2023-04-26T00:45:12;157270.53;;;5.64;100.00
29331;BME280;16331;52.528;13.342;2023-04-26T00:47:43;157276.00;;;5.66;100.00
29331;BME280;16331;52.528;13.342;2023-04-26T00:50:12;157265.06;;;5.62;100.00
29331;BME280;16331;52.528;13.342;2023-04-26T00:52:39;157276.00;;;5.66;100.00
29331;BME280;16331;52.528;13.342;2023-04-26T00:55:06;157281.44;;;5.68;100.00
29331;BME280;16331;52.528;13.342;2023-04-26T00:57:32;157256.88;;;5.59;100.00
29331;BME280;16331;52.528;13.342;2023-04-26T00:59:58;157256.88;;;5.59;100.00
29331;BME280;16331;52.528;13.342;2023-04-26T01:02:24;157248.69;;;5.56;100.00
29331;BME280;16331;52.528;13.342;2023-04-26T01:04:52;157226.84;;;5.48;100.00
29331;BME280;16331;52.528;13.342;2023-04-26T01:07:18;157232.31;;;5.50;100.00
29331;BME280;16331;52.528;13.342;2023-04-26T01:09:47;157266.44;;;5.63;100.00
29331;BME280;16331;52.528;13.342;2023-04-26T01:12:14;157206.38;;;5.41;100.00
29331;BME280;16331;52.528;13.342;2023-04-26T01:14:40;157221.38;;;5.46;100.00
29331;BME280;16331;52.528;13.342;2023-04-26T01:17:07;157199.50;;;5.38;100.00
29331;BME280;16331;52.528;13.342;2023-04-26T01:19:45;157225.47;;;5.48;100.00
29331;BME280;16331;52.528;13.342;2023-04-26T01:22:11;157219.97;;;5.46;100.00
29331;BME280;16331;52.528;13.342;2023-04-26T01:24:37;157202.28;;;5.39;100.00
29331;BME280;16331;52.528;13.342;2023-04-26T01:27:04;157192.72;;;5.36;100.00
29331;BME280;16331;52.528;13.342;2023-04-26T01:29:31;157196.81;;;5.37;100.00
29331;BME280;16331;52.528;13.342;2023-04-26T01:31:57;157192.72;;;5.36;100.00
29331;BME280;16331;52.528;13.342;2023-04-26T01:34:24;157180.44;;;5.31;100.00
29331;BME280;16331;52.528;13.342;2023-04-26T01:36:50;157164.00;;;5.25;100.00
29331;BME280;16331;52.528;13.342;2023-04-26T01:39:16;157164.00;;;5.25;100.00
29331;BME280;16331;52.528;13.342;2023-04-26T01:41:42;157180.44;;;5.31;100.00
29331;BME280;16331;52.528;13.342;2023-04-26T01:44:08;157187.25;;;5.34;100.00
29331;BME280;16331;52.528;13.342;2023-04-26T01:46:35;157158.59;;;5.23;100.00
29331;BME280;16331;52.528;13.342;2023-04-26T01:49:01;157134.00;;;5.14;100.00
29331;BME280;16331;52.528;13.342;2023-04-26T01:51:28;157169.50;;;5.27;100.00
29331;BME280;16331;52.528;13.342;2023-04-26T01:53:55;157142.19;;;5.17;100.00
29331;BME280;16331;52.528;13.342;2023-04-26T01:56:26;157131.28;;;5.13;100.00
29331;BME280;16331;52.528;13.342;2023-04-26T01:58:53;157119.00;;;5.09;100.00
29331;BME280;16331;52.528;13.342;2023-04-26T02:01:23;157119.00;;;5.09;100.00
29331;BME280;16331;52.528;13.342;2023-04-26T02:03:50;157124.44;;;5.11;100.00
29331;BME280;16331;52.528;13.342;2023-04-26T02:06:17;157138.09;;;5.16;100.00
29331;BME280;16331;52.528;13.342;2023-04-26T02:08:44;157123.09;;;5.10;100.00
29331;BME280;16331;52.528;13.342;2023-04-26T02:11:10;157084.84;;;4.96;100.00
29331;BME280;16331;52.528;13.342;2023-04-26T02:13:36;157079.44;;;4.94;100.00
29331;BME280;16331;52.528;13.342;2023-04-26T02:16:03;157101.25;;;5.02;100.00
29331;BME280;16331;52.528;13.342;2023-04-26T02:18:30;157093.06;;;4.99;100.00
29331;BME280;16331;52.528;13.342;2023-04-26T02:20:56;157106.69;;;5.04;100.00
29331;BME280;16331;52.528;13.342;2023-04-26T02:23:22;157112.16;;;5.06;100.00
29331;BME280;16331;52.528;13.342;2023-04-26T02:25:49;157094.41;;;5.00;100.00
29331;BME280;16331;52.528;13.342;2023-04-26T02:28:15;157079.44;;;4.94;100.00
29331;BME280;16331;52.528;13.342;2023-04-26T02:30:43;157093.06;;;4.99;100.00
29331;BME280;16331;52.528;13.342;2023-04-26T02:33:10;157083.50;;;4.96;100.00
29331;BME280;16331;52.528;13.342;2023-04-26T02:35:36;157052.13;;;4.84;100.00
29331;BME280;16331;52.528;13.342;2023-04-26T02:38:04;157054.81;;;4.85;100.00
29331;BME280;16331;52.528;13.342;2023-04-26T02:40:30;157063.00;;;4.88;100.00
29331;BME280;16331;52.528;13.342;2023-04-26T02:42:57;157098.50;;;5.01;100.00
29331;BME280;16331;52.528;13.342;2023-04-26T02:45:24;157052.13;;;4.84;100.00
29331;BME280;16331;52.528;13.342;2023-04-26T02:47:52;157037.09;;;4.79;100.00
29331;BME280;16331;52.528;13.342;2023-04-26T02:50:18;157068.47;;;4.90;100.00
29331;BME280;16331;52.528;13.342;2023-04-26T02:52:44;157049.41;;;4.83;100.00
29331;BME280;16331;52.528;13.342;2023-04-26T02:55:12;157037.09;;;4.79;100.00
29331;BME280;16331;52.528;13.342;2023-04-26T02:57:39;156988.00;;;4.61;100.00
29331;BME280;16331;52.528;13.342;2023-04-26T03:00:06;157031.66;;;4.77;100.00
29331;BME280;16331;52.528;13.342;2023-04-26T03:02:33;157043.94;;;4.81;100.00
29331;BME280;16331;52.528;13.342;2023-04-26T03:04:59;157007.06;;;4.68;100.00
29331;BME280;16331;52.528;13.342;2023-04-26T03:07:27;156992.09;;;4.62;100.00
29331;BME280;16331;52.528;13.342;2023-04-26T03:09:53;156998.91;;;4.65;100.00
29331;BME280;16331;52.528;13.342;2023-04-26T03:12:19;156986.63;;;4.60;100.00
29331;BME280;16331;52.528;13.342;2023-04-26T03:14:45;157030.28;;;4.76;100.00
29331;BME280;16331;52.528;13.342;2023-04-26T03:17:13;157011.16;;;4.69;100.00
29331;BME280;16331;52.528;13.342;2023-04-26T03:19:40;157005.75;;;4.67;100.00
29331;BME280;16331;52.528;13.342;2023-04-26T03:22:06;156964.78;;;4.52;100.00
29331;BME280;16331;52.528;13.342;2023-04-26T03:24:32;156970.28;;;4.54;100.00
29331;BME280;16331;52.528;13.342;2023-04-26T03:26:58;156981.16;;;4.58;100.00
29331;BME280;16331;52.528;13.342;2023-04-26T03:29:25;156967.50;;;4.53;100.00
29331;BME280;16331;52.528;13.342;2023-04-26T03:31:51;156992.09;;;4.62;100.00
29331;BME280;16331;52.528;13.342;2023-04-26T03:34:18;156972.97;;;4.55;100.00
29331;BME280;16331;52.528;13.342;2023-04-26T03:36:45;156964.78;;;4.52;100.00
29331;BME280;16331;52.528;13.342;2023-04-26T03:39:11;156949.81;;;4.47;100.00
29331;BME280;16331;52.528;13.342;2023-04-26T03:41:38;156962.09;;;4.51;100.00
29331;BME280;16331;52.528;13.342;2023-04-26T03:44:05;156940.25;;;4.43;100.00
29331;BME280;16331;52.528;13.342;2023-04-26T03:46:31;156975.72;;;4.56;100.00
29331;BME280;16331;52.528;13.342;2023-04-26T03:48:58;156962.09;;;4.51;100.00
29331;BME280;16331;52.528;13.342;2023-04-26T03:51:25;156990.72;;;4.62;100.00
29331;BME280;16331;52.528;13.342;2023-04-26T03:53:52;156947.06;;;4.45;100.00
29331;BME280;16331;52.528;13.342;2023-04-26T03:56:18;156941.59;;;4.43;100.00
29331;BME280;16331;52.528;13.342;2023-04-26T03:58:45;156956.63;;;4.49;100.00
29331;BME280;16331;52.528;13.342;2023-04-26T04:01:11;156978.44;;;4.57;100.00
29331;BME280;16331;52.528;13.342;2023-04-26T04:03:37;156929.31;;;4.39;100.00
29331;BME280;16331;52.528;13.342;2023-04-26T04:06:03;156934.78;;;4.41;100.00
29331;BME280;16331;52.528;13.342;2023-04-26T04:08:30;156942.97;;;4.44;100.00
29331;BME280;16331;52.528;13.342;2023-04-26T04:10:56;156959.31;;;4.50;100.00
29331;BME280;16331;52.528;13.342;2023-04-26T04:13:23;156921.16;;;4.36;100.00
29331;BME280;16331;52.528;13.342;2023-04-26T04:15:49;156959.31;;;4.50;100.00
29331;BME280;16331;52.528;13.342;2023-04-26T04:18:15;156956.63;;;4.49;100.00
29331;BME280;16331;52.528;13.342;2023-04-26T04:20:41;156978.44;;;4.57;100.00
29331;BME280;16331;52.528;13.342;2023-04-26T04:23:07;157002.97;;;4.66;100.00
29331;BME280;16331;52.528;13.342;2023-04-26T04:25:34;156997.56;;;4.64;100.00
29331;BME280;16331;52.528;13.342;2023-04-26T04:28:03;157002.97;;;4.66;100.00
29331;BME280;16331;52.528;13.342;2023-04-26T04:30:29;156994.81;;;4.63;100.00
29331;BME280;16331;52.528;13.342;2023-04-26T04:32:56;156992.09;;;4.62;100.00
29331;BME280;16331;52.528;13.342;2023-04-26T04:35:25;157007.06;;;4.68;100.00
29331;BME280;16331;52.528;13.342;2023-04-26T04:37:56;157023.47;;;4.74;100.00
29331;BME280;16331;52.528;13.342;2023-04-26T04:40:23;157034.38;;;4.78;100.00
29331;BME280;16331;52.528;13.342;2023-04-26T04:42:51;157057.59;;;4.86;100.00
29331;BME280;16331;52.528;13.342;2023-04-26T04:45:18;157024.81;;;4.74;100.00
29331;BME280;16331;52.528;13.342;2023-04-26T04:47:46;157027.56;;;4.75;100.00
29331;BME280;16331;52.528;13.342;2023-04-26T04:50:12;157076.66;;;4.93;100.00
29331;BME280;16331;52.528;13.342;2023-04-26T04:52:39;157071.25;;;4.91;100.00
29331;BME280;16331;52.528;13.342;2023-04-26T04:55:06;157090.31;;;4.98;100.00
29331;BME280;16331;52.528;13.342;2023-04-26T04:57:35;157098.50;;;5.01;100.00
29331;BME280;16331;52.528;13.342;2023-04-26T05:00:02;157056.22;;;4.86;100.00
29331;BME280;16331;52.528;13.342;2023-04-26T05:02:35;157106.69;;;5.04;100.00
29331;BME280;16331;52.528;13.342;2023-04-26T05:05:07;157149.03;;;5.20;100.00
29331;BME280;16331;52.528;13.342;2023-04-26T05:07:34;157136.75;;;5.15;100.00
29331;BME280;16331;52.528;13.342;2023-04-26T05:10:00;157134.00;;;5.14;100.00
29331;BME280;16331;52.528;13.342;2023-04-26T05:12:27;157159.91;;;5.24;100.00
29331;BME280;16331;52.528;13.342;2023-04-26T05:14:53;157183.16;;;5.32;100.00
29331;BME280;16331;52.528;13.342;2023-04-26T05:17:40;157271.91;;;5.65;100.00
29331;BME280;16331;52.528;13.342;2023-04-26T05:20:07;157386.66;;;6.07;100.00
29331;BME280;16331;52.528;13.342;2023-04-26T05:22:34;157385.34;;;6.07;100.00
29331;BME280;16331;52.528;13.342;2023-04-26T05:25:02;157289.63;;;5.71;100.00
29331;BME280;16331;52.528;13.342;2023-04-26T05:27:29;157254.16;;;5.58;100.00
29331;BME280;16331;52.528;13.342;2023-04-26T05:29:55;157288.28;;;5.71;100.00
29331;BME280;16331;52.528;13.342;2023-04-26T05:32:22;157277.34;;;5.67;100.00
29331;BME280;16331;52.528;13.342;2023-04-26T05:34:49;157371.66;;;6.02;100.00
29331;BME280;16331;52.528;13.342;2023-04-26T05:37:15;157358.00;;;5.97;100.00
29331;BME280;16331;52.528;13.342;2023-04-26T05:39:42;157330.66;;;5.86;100.00
29331;BME280;16331;52.528;13.342;2023-04-26T05:42:12;157337.47;;;5.89;100.00
29331;BME280;16331;52.528;13.342;2023-04-26T05:44:39;157314.25;;;5.80;100.00
29331;BME280;16331;52.528;13.342;2023-04-26T05:47:07;157366.19;;;6.00;100.00
29331;BME280;16331;52.528;13.342;2023-04-26T05:49:33;157433.16;;;6.24;100.00
29331;BME280;16331;52.528;13.342;2023-04-26T05:51:59;157470.03;;;6.38;100.00
29331;BME280;16331;52.528;13.342;2023-04-26T05:54:26;157460.44;;;6.34;100.00
29331;BME280;16331;52.528;13.342;2023-04-26T05:56:52;157521.94;;;6.57;100.00
29331;BME280;16331;52.528;13.342;2023-04-26T05:59:18;157491.88;;;6.46;100.00
29331;BME280;16331;52.528;13.342;2023-04-26T06:01:44;157490.50;;;6.45;100.00
29331;BME280;16331;52.528;13.342;2023-04-26T06:04:10;157478.22;;;6.41;100.00
29331;BME280;16331;52.528;13.342;2023-04-26T06:06:36;157508.28;;;6.52;100.00
29331;BME280;16331;52.528;13.342;2023-04-26T06:09:03;157552.00;;;6.68;100.00
29331;BME280;16331;52.528;13.342;2023-04-26T06:11:29;157541.09;;;6.64;100.00
29331;BME280;16331;52.528;13.342;2023-04-26T06:13:56;157606.72;;;6.88;100.00
29331;BME280;16331;52.528;13.342;2023-04-26T06:16:23;157613.53;;;6.90;100.00
29331;BME280;16331;52.528;13.342;2023-04-26T06:18:52;157658.69;;;7.07;100.00
29331;BME280;16331;52.528;13.342;2023-04-26T06:21:18;157684.66;;;7.16;100.00
29331;BME280;16331;52.528;13.342;2023-04-26T06:23:45;157601.25;;;6.86;100.00
29331;BME280;16331;52.528;13.342;2023-04-26T06:26:11;157639.50;;;7.00;100.00
29331;BME280;16331;52.528;13.342;2023-04-26T06:28:37;157605.34;;;6.87;100.00
29331;BME280;16331;52.528;13.342;2023-04-26T06:31:04;157623.13;;;6.94;100.00
29331;BME280;16331;52.528;13.342;2023-04-26T06:33:30;157664.16;;;7.09;100.00
29331;BME280;16331;52.528;13.342;2023-04-26T06:35:56;157639.50;;;7.00;100.00
29331;BME280;16331;52.528;13.342;2023-04-26T06:38:23;157686.03;;;7.17;100.00
29331;BME280;16331;52.528;13.342;2023-04-26T06:40:50;157861.09;;;7.81;100.00
29331;BME280;16331;52.528;13.342;2023-04-26T06:43:16;157848.78;;;7.77;100.00
29331;BME280;16331;52.528;13.342;2023-04-26T06:45:43;157820.06;;;7.66;100.00
29331;BME280;16331;52.528;13.342;2023-04-26T06:48:09;157820.06;;;7.66;100.00
29331;BME280;16331;52.528;13.342;2023-04-26T06:50:38;157800.91;;;7.59;100.00
29331;BME280;16331;52.528;13.342;2023-04-26T06:53:05;157790.00;;;7.55;100.00
29331;BME280;16331;52.528;13.342;2023-04-26T06:55:31;157814.59;;;7.64;100.00
29331;BME280;16331;52.528;13.342;2023-04-26T06:57:57;157847.47;;;7.76;100.00
29331;BME280;16331;52.528;13.342;2023-04-26T07:00:23;157896.69;;;7.94;100.00
29331;BME280;16331;52.528;13.342;2023-04-26T07:02:51;157892.59;;;7.93;100.00
29331;BME280;16331;52.528;13.342;2023-04-26T07:05:18;157874.78;;;7.86;100.00
29331;BME280;16331;52.528;13.342;2023-04-26T07:07:46;157907.66;;;7.98;100.00
29331;BME280;16331;52.528;13.342;2023-04-26T07:10:13;157899.47;;;7.95;100.00
29331;BME280;16331;52.528;13.342;2023-04-26T07:12:40;157917.25;;;8.02;100.00
29331;BME280;16331;52.528;13.342;2023-04-26T07:15:08;157855.66;;;7.79;100.00
29331;BME280;16331;52.528;13.342;2023-04-26T07:17:35;157885.75;;;7.90;100.00
29331;BME280;16331;52.528;13.342;2023-04-26T07:20:04;157965.16;;;8.19;100.00
29331;BME280;16331;52.528;13.342;2023-04-26T07:22:33;158025.44;;;8.41;100.00
29331;BME280;16331;52.528;13.342;2023-04-26T07:24:59;158052.84;;;8.51;100.00
29331;BME280;16331;52.528;13.342;2023-04-26T07:27:25;158155.53;;;8.89;100.00
29331;BME280;16331;52.528;13.342;2023-04-26T07:29:55;158107.59;;;8.71;100.00
29331;BME280;16331;52.528;13.342;2023-04-26T07:32:31;158148.69;;;8.87;100.00
29331;BME280;16331;52.528;13.342;2023-04-26T07:34:58;158225.38;;;9.15;100.00
29331;BME280;16331;52.528;13.342;2023-04-26T07:37:24;158170.63;;;8.95;100.00
29331;BME280;16331;52.528;13.342;2023-04-26T07:39:59;158197.97;;;9.05;100.00
29331;BME280;16331;52.528;13.342;2023-04-26T07:42:28;158241.81;;;9.21;100.00
29331;BME280;16331;52.528;13.342;2023-04-26T07:44:54;158450.19;;;9.97;100.00
29331;BME280;16331;52.528;13.342;2023-04-26T07:47:20;158444.69;;;9.95;100.00
29331;BME280;16331;52.528;13.342;2023-04-26T07:49:53;158476.25;;;10.06;100.00
29331;BME280;16331;52.528;13.342;2023-04-26T07:52:24;158407.66;;;9.81;100.00
29331;BME280;16331;52.528;13.342;2023-04-26T07:54:54;158516.06;;;10.21;100.00
29331;BME280;16331;52.528;13.342;2023-04-26T07:57:21;158429.59;;;9.89;100.00
29331;BME280;16331;52.528;13.342;2023-04-26T07:59:48;158317.19;;;9.48;100.00
29331;BME280;16331;52.528;13.342;2023-04-26T08:02:15;158329.53;;;9.53;100.00
29331;BME280;16331;52.528;13.342;2023-04-26T08:04:49;158262.41;;;9.28;100.00
29331;BME280;16331;52.528;13.342;2023-04-26T08:07:17;158362.44;;;9.65;100.00
29331;BME280;16331;52.528;13.342;2023-04-26T08:09:45;158163.75;;;8.92;100.00
29331;BME280;16331;52.528;13.342;2023-04-26T08:12:12;158145.94;;;8.86;100.00
29331;BME280;16331;52.528;13.342;2023-04-26T08:14:40;158174.72;;;8.96;100.00
29331;BME280;16331;52.528;13.342;2023-04-26T08:17:12;158232.22;;;9.17;100.00
29331;BME280;16331;52.528;13.342;2023-04-26T08:19:39;158299.38;;;9.42;100.00
29331;BME280;16331;52.528;13.342;2023-04-26T08:22:06;158367.91;;;9.67;100.00
29331;BME280;16331;52.528;13.342;2023-04-26T08:24:34;158425.47;;;9.88;100.00
29331;BME280;16331;52.528;13.342;2023-04-26T08:27:01;158350.13;;;9.60;100.00
29331;BME280;16331;52.528;13.342;2023-04-26T08:29:28;158285.66;;;9.37;100.00
29331;BME280;16331;52.528;13.342;2023-04-26T08:31:57;158304.88;;;9.44;100.00
29331;BME280;16331;52.528;13.342;2023-04-26T08:34:28;158084.28;;;8.63;100.00
29331;BME280;16331;52.528;13.342;2023-04-26T08:37:09;157940.47;;;8.10;100.00
29331;BME280;16331;52.528;13.342;2023-04-26T08:39:36;157954.19;;;8.15;100.00
29331;BME280;16331;52.528;13.342;2023-04-26T08:42:25;158059.66;;;8.54;100.00
29331;BME280;16331;52.528;13.342;2023-04-26T08:44:52;158135.00;;;8.82;100.00
29331;BME280;16331;52.528;13.342;2023-04-26T08:47:28;158241.81;;;9.21;100.00
29331;BME280;16331;52.528;13.342;2023-04-26T08:50:02;158254.13;;;9.25;100.00
29331;BME280;16331;52.528;13.342;2023-04-26T08:52:34;158277.44;;;9.34;100.00
29331;BME280;16331;52.528;13.342;2023-04-26T08:55:11;158354.22;;;9.62;100.00
29331;BME280;16331;52.528;13.342;2023-04-26T08:57:39;158518.78;;;10.22;100.00
29331;BME280;16331;52.528;13.342;2023-04-26T09:00:10;158335.03;;;9.55;100.00
29331;BME280;16331;52.528;13.342;2023-04-26T09:02:39;158436.47;;;9.92;100.00
29331;BME280;16331;52.528;13.342;2023-04-26T09:05:11;158480.41;;;10.08;100.00
29331;BME280;16331;52.528;13.342;2023-04-26T09:07:47;158466.63;;;10.03;100.00
29331;BME280;16331;52.528;13.342;2023-04-26T09:10:21;158418.66;;;9.85;100.00
29331;BME280;16331;52.528;13.342;2023-04-26T09:12:55;158488.63;;;10.11;100.00
29331;BME280;16331;52.528;13.342;2023-04-26T09:15:25;158570.91;;;10.41;100.00
29331;BME280;16331;52.528;13.342;2023-04-26T09:18:22;158603.88;;;10.53;100.00
29331;BME280;16331;52.528;13.342;2023-04-26T09:21:08;158510.56;;;10.19;100.00
29331;BME280;16331;52.528;13.342;2023-04-26T09:23:35;158532.50;;;10.27;100.00
29331;BME280;16331;52.528;13.342;2023-04-26T09:26:23;158536.63;;;10.29;100.00
29331;BME280;16331;52.528;13.342;2023-04-26T09:29:17;158496.84;;;10.14;100.00
29331;BME280;16331;52.528;13.342;2023-04-26T09:31:56;158566.78;;;10.40;100.00
29331;BME280;16331;52.528;13.342;2023-04-26T09:34:24;158743.81;;;11.04;97.82
29331;BME280;16331;52.528;13.342;2023-04-26T09:36:52;158793.19;;;11.22;93.45
29331;BME280;16331;52.528;13.342;2023-04-26T09:39:36;158746.53;;;11.05;93.80
29331;BME280;16331;52.528;13.342;2023-04-26T09:42:25;158634.03;;;10.64;95.31
29331;BME280;16331;52.528;13.342;2023-04-26T09:44:52;158642.25;;;10.67;97.02
29331;BME280;16331;52.528;13.342;2023-04-26T09:47:21;158757.50;;;11.09;90.86
29331;BME280;16331;52.528;13.342;2023-04-26T09:49:50;158881.06;;;11.54;86.46
29331;BME280;16331;52.528;13.342;2023-04-26T09:52:19;158938.81;;;11.76;82.65
29331;BME280;16331;52.528;13.342;2023-04-26T09:54:47;158782.25;;;11.18;84.06
29331;BME280;16331;52.528;13.342;2023-04-26T09:57:18;158656.00;;;10.72;88.68
29331;BME280;16331;52.528;13.342;2023-04-26T09:59:53;158661.44;;;10.74;91.65
29331;BME280;16331;52.528;13.342;2023-04-26T10:02:25;158806.94;;;11.27;85.20
29331;BME280;16331;52.528;13.342;2023-04-26T10:04:55;158845.34;;;11.41;80.87
29331;BME280;16331;52.528;13.342;2023-04-26T10:07:27;158804.22;;;11.26;80.18
29331;BME280;16331;52.528;13.342;2023-04-26T10:10:03;158746.53;;;11.05;79.29
29331;BME280;16331;52.528;13.342;2023-04-26T10:12:29;158716.34;;;10.94;74.01
29331;BME280;16331;52.528;13.342;2023-04-26T10:14:59;158536.63;;;10.29;76.88
29331;BME280;16331;52.528;13.342;2023-04-26T10:17:25;158484.53;;;10.09;77.62
29331;BME280;16331;52.528;13.342;2023-04-26T10:19:55;158554.47;;;10.35;77.77
29331;BME280;16331;52.528;13.342;2023-04-26T10:22:32;158509.19;;;10.18;82.96
29331;BME280;16331;52.528;13.342;2023-04-26T10:25:03;158351.47;;;9.61;87.13
29331;BME280;16331;52.528;13.342;2023-04-26T10:27:49;158332.31;;;9.54;93.21
29331;BME280;16331;52.528;13.342;2023-04-26T10:30:18;158314.47;;;9.47;95.97
29331;BME280;16331;52.528;13.342;2023-04-26T10:35:36;158308.97;;;9.45;96.98
29331;BME280;16331;52.528;13.342;2023-04-26T10:38:07;158266.53;;;9.30;100.00
29331;BME280;16331;52.528;13.342;2023-04-26T10:40:39;158352.84;;;9.61;100.00
29331;BME280;16331;52.528;13.342;2023-04-26T10:45:42;158465.25;;;10.02;97.34
29331;BME280;16331;52.528;13.342;2023-04-26T10:48:29;158634.03;;;10.64;93.40
29331;BME280;16331;52.528;13.342;2023-04-26T10:53:31;158874.22;;;11.52;87.38
29331;BME280;16331;52.528;13.342;2023-04-26T10:55:59;158816.56;;;11.31;80.79
29331;BME280;16331;52.528;13.342;2023-04-26T10:58:39;158801.44;;;11.25;81.86
29331;BME280;16331;52.528;13.342;2023-04-26T11:01:08;158647.72;;;10.69;83.87
29331;BME280;16331;52.528;13.342;2023-04-26T11:03:41;158539.34;;;10.30;87.23
29331;BME280;16331;52.528;13.342;2023-04-26T11:06:09;158607.97;;;10.55;86.71
29331;BME280;16331;52.528;13.342;2023-04-26T11:08:40;158724.59;;;10.97;81.13
29331;BME280;16331;52.528;13.342;2023-04-26T11:11:16;158850.88;;;11.43;78.90
29331;BME280;16331;52.528;13.342;2023-04-26T11:13:47;158823.41;;;11.33;79.91
29331;BME280;16331;52.528;13.342;2023-04-26T11:16:27;158911.31;;;11.65;76.02
29331;BME280;16331;52.528;13.342;2023-04-26T11:18:54;158823.41;;;11.33;72.58
29331;BME280;16331;52.528;13.342;2023-04-26T11:21:24;158846.75;;;11.42;71.97
29331;BME280;16331;52.528;13.342;2023-04-26T11:23:54;158894.81;;;11.59;69.19
29331;BME280;16331;52.528;13.342;2023-04-26T11:26:30;158920.94;;;11.69;65.35
29331;BME280;16331;52.528;13.342;2023-04-26T11:29:18;158866.00;;;11.49;68.08
29331;BME280;16331;52.528;13.342;2023-04-26T11:32:10;158929.19;;;11.72;69.17
29331;BME280;16331;52.528;13.342;2023-04-26T11:34:40;158903.03;;;11.62;68.58
29331;BME280;16331;52.528;13.342;2023-04-26T11:37:10;158780.84;;;11.18;70.31
29331;BME280;16331;52.528;13.342;2023-04-26T11:39:38;158736.94;;;11.02;71.95
29331;BME280;16331;52.528;13.342;2023-04-26T11:42:10;158787.75;;;11.20;74.14
29331;BME280;16331;52.528;13.342;2023-04-26T11:44:36;158817.94;;;11.31;71.53
29331;BME280;16331;52.528;13.342;2023-04-26T11:47:05;158774.00;;;11.15;71.67
29331;BME280;16331;52.528;13.342;2023-04-26T11:49:35;158778.13;;;11.17;73.57
29331;BME280;16331;52.528;13.342;2023-04-26T11:52:04;158817.94;;;11.31;73.94
29331;BME280;16331;52.528;13.342;2023-04-26T11:54:32;158806.94;;;11.27;67.74
29331;BME280;16331;52.528;13.342;2023-04-26T11:57:00;158802.81;;;11.26;68.31
29331;BME280;16331;52.528;13.342;2023-04-26T11:59:29;159188.84;;;12.67;61.24
29331;BME280;16331;52.528;13.342;2023-04-26T12:02:15;159287.88;;;13.03;59.48
29331;BME280;16331;52.528;13.342;2023-04-26T12:04:41;159435.06;;;13.57;57.11
29331;BME280;16331;52.528;13.342;2023-04-26T12:10:30;160014.81;;;15.68;48.30
29331;BME280;16331;52.528;13.342;2023-04-26T12:12:59;160082.38;;;15.93;47.16
29331;BME280;16331;52.528;13.342;2023-04-26T12:15:35;159875.63;;;15.17;48.41
29331;BME280;16331;52.528;13.342;2023-04-26T12:18:29;159217.72;;;12.77;54.82
29331;BME280;16331;52.528;13.342;2023-04-26T12:20:59;159087.16;;;12.30;59.59
29331;BME280;16331;52.528;13.342;2023-04-26T12:23:46;158824.78;;;11.34;66.42
29331;BME280;16331;52.528;13.342;2023-04-26T12:26:15;158771.22;;;11.14;71.51
29331;BME280;16331;52.528;13.342;2023-04-26T12:28:41;158710.84;;;10.92;75.48
29331;BME280;16331;52.528;13.342;2023-04-26T12:31:08;158765.78;;;11.12;77.22
29331;BME280;16331;52.528;13.342;2023-04-26T12:33:40;158860.50;;;11.47;77.16
29331;BME280;16331;52.528;13.342;2023-04-26T12:36:11;158926.44;;;11.71;75.05
29331;BME280;16331;52.528;13.342;2023-04-26T12:38:39;158919.56;;;11.68;75.79
29331;BME280;16331;52.528;13.342;2023-04-26T12:41:07;158894.81;;;11.59;78.57
29331;BME280;16331;52.528;13.342;2023-04-26T12:43:37;159140.75;;;12.49;73.65
29331;BME280;16331;52.528;13.342;2023-04-26T12:46:05;159197.09;;;12.70;73.15
29331;BME280;16331;52.528;13.342;2023-04-26T12:48:31;159549.25;;;13.98;63.73
29331;BME280;16331;52.528;13.342;2023-04-26T12:51:08;159633.25;;;14.29;59.61
29331;BME280;16331;52.528;13.342;2023-04-26T12:53:36;159934.88;;;15.39;55.01
29331;BME280;16331;52.528;13.342;2023-04-26T12:56:04;160183.00;;;16.29;52.08
29331;BME280;16331;52.528;13.342;2023-04-26T12:58:31;160396.84;;;17.07;49.05
29331;BME280;16331;52.528;13.342;2023-04-26T13:01:08;160485.16;;;17.39;45.57